createdAt,value
2023-12-04T00:01:17.846Z,6.47
2023-12-04T00:03:45.384Z,7.25
2023-12-04T00:06:13.022Z,6.32
2023-12-04T00:08:40.835Z,6.82
2023-12-04T00:11:08.593Z,6.07
2023-12-04T00:13:36.482Z,6.78
2023-12-04T00:16:04.255Z,6.50
2023-12-04T00:18:31.977Z,6.53
2023-12-04T00:20:59.360Z,6.30
2023-12-04T00:23:26.648Z,6.75
2023-12-04T00:25:55.654Z,5.70
2023-12-04T00:28:22.956Z,6.30
2023-12-04T00:30:50.233Z,5.85
2023-12-04T00:33:17.727Z,5.72
2023-12-04T00:35:45.210Z,6.20
2023-12-04T00:38:25.099Z,6.05
2023-12-04T00:43:19.737Z,5.78
2023-12-04T00:45:47.643Z,5.60
2023-12-04T00:48:14.905Z,6.13
2023-12-04T00:50:42.134Z,6.10
2023-12-04T00:53:09.450Z,5.40
2023-12-04T00:55:36.699Z,5.93
2023-12-04T00:58:04.273Z,6.07
2023-12-04T01:00:31.476Z,5.65
2023-12-04T01:02:59.401Z,5.68
2023-12-04T01:05:26.672Z,5.50
2023-12-04T01:07:53.970Z,4.80
2023-12-04T01:10:21.292Z,5.00
2023-12-04T01:12:48.693Z,5.13
2023-12-04T01:15:17.406Z,5.25
2023-12-04T01:17:44.754Z,5.07
2023-12-04T01:20:12.099Z,5.35
2023-12-04T01:22:39.293Z,4.70
2023-12-04T01:25:07.079Z,4.90
2023-12-04T01:27:36.394Z,5.10
2023-12-04T01:30:03.917Z,5.50
2023-12-04T01:32:31.414Z,5.13
2023-12-04T01:34:58.716Z,5.03
2023-12-04T01:37:25.887Z,4.63
2023-12-04T01:39:53.135Z,5.15
2023-12-04T01:42:20.548Z,4.80
2023-12-04T01:45:09.309Z,5.40
2023-12-04T01:47:36.723Z,5.53
2023-12-04T01:50:05.343Z,5.10
2023-12-04T01:52:32.920Z,5.00
2023-12-04T01:55:00.534Z,4.82
2023-12-04T01:57:27.843Z,4.85
2023-12-04T02:00:02.708Z,4.90
2023-12-04T02:02:43.175Z,5.00
2023-12-04T02:05:10.671Z,5.47
2023-12-04T02:07:38.087Z,4.97
2023-12-04T02:10:07.382Z,5.60
2023-12-04T02:12:34.772Z,4.80
2023-12-04T02:15:02.320Z,5.20
2023-12-04T02:17:30.204Z,4.80
2023-12-04T02:19:58.252Z,5.18
2023-12-04T02:22:25.471Z,5.07
2023-12-04T02:24:52.784Z,4.53
2023-12-04T02:27:26.742Z,4.75
2023-12-04T02:30:00.671Z,5.22
2023-12-04T02:32:30.406Z,5.32
2023-12-04T02:35:01.153Z,5.18
2023-12-04T02:37:29.095Z,5.20
2023-12-04T02:39:56.526Z,5.35
2023-12-04T02:42:26.111Z,4.65
2023-12-04T02:44:53.449Z,5.18
2023-12-04T02:47:20.851Z,5.28
2023-12-04T02:49:51.027Z,5.18
2023-12-04T02:52:27.255Z,5.90
2023-12-04T02:54:54.946Z,4.75
2023-12-04T02:57:22.808Z,4.90
2023-12-04T02:59:49.995Z,5.03
2023-12-04T03:02:17.157Z,4.93
2023-12-04T03:04:47.632Z,5.38
2023-12-04T03:07:15.040Z,5.07
2023-12-04T03:09:48.603Z,5.07
2023-12-04T03:12:19.917Z,5.13
2023-12-04T03:17:14.174Z,4.93
2023-12-04T03:19:41.362Z,4.93
2023-12-04T03:22:08.709Z,4.88
2023-12-04T03:24:36.175Z,4.65
2023-12-04T03:27:03.568Z,4.57
2023-12-04T03:29:30.845Z,4.97
2023-12-04T03:31:58.809Z,4.43
2023-12-04T03:34:26.063Z,4.78
2023-12-04T03:36:53.372Z,4.50
2023-12-04T03:39:20.568Z,4.60
2023-12-04T03:41:48.521Z,4.93
2023-12-04T03:44:15.715Z,5.25
2023-12-04T03:46:43.315Z,4.70
2023-12-04T03:49:10.596Z,4.82
2023-12-04T03:51:38.018Z,4.53
2023-12-04T03:54:05.259Z,4.32
2023-12-04T03:56:32.412Z,5.05
2023-12-04T03:58:59.556Z,4.78
2023-12-04T04:01:27.036Z,4.40
2023-12-04T04:03:55.149Z,4.35
2023-12-04T04:06:22.296Z,3.83
2023-12-04T04:08:49.475Z,4.68
2023-12-04T04:11:16.643Z,4.15
2023-12-04T04:13:43.806Z,4.80
2023-12-04T04:16:16.036Z,4.53
2023-12-04T04:18:44.243Z,4.80
2023-12-04T04:21:11.580Z,4.97
2023-12-04T04:23:38.853Z,4.47
2023-12-04T04:26:06.212Z,5.05
2023-12-04T04:28:33.928Z,4.80
2023-12-04T04:31:01.154Z,4.50
2023-12-04T04:33:28.489Z,4.80
2023-12-04T04:35:55.658Z,4.80
2023-12-04T04:38:23.011Z,4.93
2023-12-04T04:40:50.206Z,3.95
2023-12-04T04:43:17.542Z,4.90
2023-12-04T04:45:45.016Z,4.63
2023-12-04T04:48:12.235Z,4.25
2023-12-04T04:50:39.417Z,4.78
2023-12-04T04:53:06.600Z,5.10
2023-12-04T04:55:47.123Z,4.63
2023-12-04T04:58:17.340Z,4.68
2023-12-04T05:00:45.247Z,5.43
2023-12-04T05:03:12.452Z,5.25
2023-12-04T05:05:39.815Z,5.00
2023-12-04T05:08:07.075Z,5.07
2023-12-04T05:10:34.268Z,4.53
2023-12-04T05:13:01.531Z,4.97
2023-12-04T05:15:28.767Z,5.18
2023-12-04T05:17:56.078Z,4.93
2023-12-04T05:20:23.500Z,4.32
2023-12-04T05:22:50.726Z,4.40
2023-12-04T05:25:17.951Z,5.32
2023-12-04T05:27:46.875Z,5.18
2023-12-04T05:30:15.088Z,5.35
2023-12-04T05:32:42.554Z,5.13
2023-12-04T05:35:09.791Z,5.32
2023-12-04T05:37:37.013Z,4.63
2023-12-04T05:40:06.002Z,4.80
2023-12-04T05:42:33.399Z,4.70
2023-12-04T05:45:01.774Z,4.57
2023-12-04T05:47:29.022Z,4.82
2023-12-04T05:49:56.379Z,4.88
2023-12-04T05:52:23.622Z,5.00
2023-12-04T05:54:51.029Z,4.88
2023-12-04T05:57:18.356Z,4.85
2023-12-04T05:59:45.886Z,4.60
2023-12-04T06:02:14.119Z,4.88
2023-12-04T06:04:41.514Z,4.63
2023-12-04T06:07:08.857Z,4.65
2023-12-04T06:09:37.879Z,4.53
2023-12-04T06:12:09.231Z,4.43
2023-12-04T06:14:36.766Z,4.40
2023-12-04T06:17:04.298Z,4.85
2023-12-04T06:19:35.435Z,4.78
2023-12-04T06:22:02.709Z,4.53
2023-12-04T06:24:30.163Z,4.00
2023-12-04T06:26:58.672Z,4.53
2023-12-04T06:29:27.180Z,4.70
2023-12-04T06:31:54.991Z,4.70
2023-12-04T06:34:22.803Z,4.20
2023-12-04T06:36:50.389Z,4.25
2023-12-04T06:39:18.301Z,4.30
2023-12-04T06:41:47.775Z,4.38
2023-12-04T06:44:15.439Z,4.07
2023-12-04T06:46:44.462Z,4.22
2023-12-04T06:49:18.185Z,4.10
2023-12-04T06:51:53.522Z,4.10
2023-12-04T06:54:20.771Z,4.18
2023-12-04T06:56:48.429Z,3.83
2023-12-04T06:59:15.663Z,4.53
2023-12-04T07:01:47.355Z,4.35
2023-12-04T07:07:09.863Z,4.47
2023-12-04T07:09:37.498Z,4.20
2023-12-04T07:12:05.062Z,4.75
2023-12-04T07:14:32.454Z,4.10
2023-12-04T07:17:01.962Z,4.75
2023-12-04T07:19:30.119Z,4.18
2023-12-04T07:21:57.454Z,4.03
2023-12-04T07:24:25.009Z,4.00
2023-12-04T07:27:06.120Z,3.80
2023-12-04T07:29:56.935Z,3.88
2023-12-04T07:32:31.079Z,4.03
2023-12-04T07:35:30.918Z,3.60
2023-12-04T07:38:09.019Z,3.60
2023-12-04T07:40:37.992Z,4.10
2023-12-04T07:43:05.721Z,3.22
2023-12-04T07:45:37.910Z,4.10
2023-12-04T07:48:19.611Z,3.70
2023-12-04T07:50:47.203Z,3.90
2023-12-04T07:53:14.959Z,4.30
2023-12-04T07:55:42.158Z,3.45
2023-12-04T07:58:09.649Z,4.38
2023-12-04T08:00:37.060Z,3.25
2023-12-04T08:03:04.359Z,3.90
2023-12-04T08:05:33.085Z,3.50
2023-12-04T08:08:00.362Z,3.50
2023-12-04T08:10:27.996Z,4.05
2023-12-04T08:12:55.463Z,3.78
2023-12-04T08:15:22.712Z,3.88
2023-12-04T08:17:50.009Z,3.47
2023-12-04T08:20:24.283Z,3.65
2023-12-04T08:22:56.092Z,4.20
2023-12-04T08:25:23.360Z,4.32
2023-12-04T08:27:51.009Z,4.03
2023-12-04T08:30:19.304Z,4.13
2023-12-04T08:32:46.591Z,3.58
2023-12-04T08:35:13.918Z,3.60
2023-12-04T08:37:41.402Z,4.50
2023-12-04T08:40:09.618Z,3.92
2023-12-04T08:42:36.927Z,4.40
2023-12-04T08:45:07.089Z,3.70
2023-12-04T08:50:02.522Z,4.28
2023-12-04T08:52:29.839Z,3.60
2023-12-04T08:54:57.921Z,4.22
2023-12-04T08:57:25.108Z,3.60
2023-12-04T08:59:52.472Z,4.15
2023-12-04T09:02:19.881Z,3.78
2023-12-04T09:04:47.281Z,4.20
2023-12-04T09:09:47.565Z,4.00
2023-12-04T09:12:15.586Z,3.50
2023-12-04T09:14:42.820Z,3.65
2023-12-04T09:17:10.135Z,3.10
2023-12-04T09:19:37.603Z,3.30
2023-12-04T09:22:12.608Z,2.95
2023-12-04T09:24:45.708Z,3.20
2023-12-04T09:27:13.165Z,3.08
2023-12-04T09:29:41.948Z,3.40
2023-12-04T09:32:09.289Z,3.55
2023-12-04T09:34:36.863Z,3.80
2023-12-04T09:37:09.062Z,3.70
2023-12-04T09:39:39.055Z,4.43
2023-12-04T09:42:07.431Z,3.92
2023-12-04T09:44:37.819Z,3.45
2023-12-04T09:47:06.219Z,2.92
2023-12-04T09:49:33.662Z,3.63
2023-12-04T09:52:02.667Z,3.78
2023-12-04T09:54:30.730Z,3.20
2023-12-04T09:56:58.771Z,3.05
2023-12-04T09:59:30.576Z,3.45
2023-12-04T10:01:58.846Z,3.00
2023-12-04T10:04:26.593Z,3.90
2023-12-04T10:06:54.010Z,4.43
2023-12-04T10:09:23.494Z,3.40
2023-12-04T10:11:54.377Z,3.38
2023-12-04T10:14:22.254Z,4.13
2023-12-04T10:16:50.908Z,3.67
2023-12-04T10:19:30.382Z,6.90
2023-12-04T10:22:02.109Z,5.28
2023-12-04T10:24:37.594Z,5.13
2023-12-04T10:27:16.084Z,4.35
2023-12-04T10:29:49.132Z,3.67
2023-12-04T10:32:24.611Z,4.40
2023-12-04T10:35:01.662Z,4.10
2023-12-04T10:37:50.672Z,4.13
2023-12-04T10:40:39.213Z,3.97
2023-12-04T10:43:09.682Z,3.55
2023-12-04T10:45:41.536Z,3.95
2023-12-04T10:48:24.469Z,4.10
2023-12-04T10:50:51.855Z,3.40
2023-12-04T10:53:19.056Z,4.28
2023-12-04T10:55:46.860Z,3.63
2023-12-04T10:58:18.469Z,3.97
2023-12-04T11:00:48.046Z,3.90
2023-12-04T11:03:37.115Z,3.65
2023-12-04T11:06:08.948Z,3.65
2023-12-04T11:08:37.444Z,3.80
2023-12-04T11:11:08.845Z,3.60
2023-12-04T11:13:39.139Z,3.25
2023-12-04T11:16:27.711Z,3.17
2023-12-04T11:19:04.372Z,3.50
2023-12-04T11:21:33.743Z,3.53
2023-12-04T11:24:01.801Z,4.53
2023-12-04T11:26:29.439Z,4.20
2023-12-04T11:28:56.996Z,3.63
2023-12-04T11:31:24.725Z,4.60
2023-12-04T11:33:51.938Z,14.20
2023-12-04T11:36:19.261Z,11.10
2023-12-04T11:38:48.209Z,7.88
2023-12-04T11:41:20.873Z,6.70
2023-12-04T11:43:51.315Z,4.55
2023-12-04T11:46:24.288Z,4.70
2023-12-04T11:48:54.417Z,4.10
2023-12-04T11:51:40.263Z,5.05
2023-12-04T11:54:11.647Z,8.60
2023-12-04T11:56:38.919Z,11.25
2023-12-04T11:59:07.453Z,15.65
2023-12-04T12:01:38.273Z,18.92
2023-12-04T12:04:09.273Z,16.27
2023-12-04T12:06:36.764Z,13.75
2023-12-04T12:09:05.140Z,11.63
2023-12-04T12:11:32.500Z,9.82
2023-12-04T12:14:00.575Z,10.02
2023-12-04T12:16:27.799Z,15.68
2023-12-04T12:18:55.431Z,8.98
2023-12-04T12:21:23.831Z,6.68
2023-12-04T12:23:51.097Z,10.95
2023-12-04T12:26:18.274Z,6.30
2023-12-04T12:28:46.431Z,8.60
2023-12-04T12:31:13.701Z,8.95
2023-12-04T12:33:41.182Z,9.30
2023-12-04T12:36:10.011Z,6.57
2023-12-04T12:38:38.518Z,13.70
2023-12-04T12:41:08.526Z,9.45
2023-12-04T12:43:35.853Z,8.00
2023-12-04T12:46:06.769Z,4.50
2023-12-04T12:48:34.174Z,3.55
2023-12-04T12:51:03.716Z,3.58
2023-12-04T12:53:33.830Z,4.05
2023-12-04T12:58:29.615Z,3.72
2023-12-04T13:00:57.475Z,3.50
2023-12-04T13:03:25.969Z,4.82
2023-12-04T13:05:53.653Z,5.57
2023-12-04T13:08:21.501Z,3.50
2023-12-04T13:10:48.731Z,3.20
2023-12-04T13:13:16.120Z,3.45
2023-12-04T13:15:43.697Z,3.75
2023-12-04T13:18:12.871Z,4.05
2023-12-04T13:20:40.164Z,3.60
2023-12-04T13:23:07.471Z,2.58
2023-12-04T13:25:34.988Z,2.80
2023-12-04T13:28:02.299Z,2.90
2023-12-04T13:30:29.616Z,2.80
2023-12-04T13:32:57.040Z,3.00
2023-12-04T13:35:24.344Z,2.90
2023-12-04T13:37:56.523Z,2.78
2023-12-04T13:40:27.411Z,3.05
2023-12-04T13:43:13.952Z,2.85
2023-12-04T13:45:41.253Z,2.55
2023-12-04T13:48:08.751Z,4.68
2023-12-04T13:50:36.726Z,3.70
2023-12-04T13:53:04.547Z,3.28
2023-12-04T13:55:48.994Z,4.25
2023-12-04T13:58:36.707Z,3.47
2023-12-04T14:01:14.861Z,3.33
2023-12-04T14:03:44.095Z,3.08
2023-12-04T14:06:12.064Z,3.78
2023-12-04T14:08:39.761Z,3.08
2023-12-04T14:11:07.308Z,4.22
2023-12-04T14:13:34.897Z,2.78
2023-12-04T14:16:05.060Z,3.83
2023-12-04T14:18:33.751Z,3.20
2023-12-04T14:21:01.071Z,2.97
2023-12-04T14:23:28.424Z,13.88
2023-12-04T14:25:56.143Z,5.35
2023-12-04T14:28:29.022Z,3.00
2023-12-04T14:31:00.189Z,2.90
2023-12-04T14:33:27.503Z,2.45
2023-12-04T14:35:55.533Z,3.90
2023-12-04T14:38:27.921Z,4.20
2023-12-04T14:40:59.966Z,3.08
2023-12-04T14:43:28.671Z,2.38
2023-12-04T14:45:55.865Z,2.72
2023-12-04T14:48:23.649Z,2.55
2023-12-04T14:50:51.090Z,2.83
2023-12-04T14:53:30.332Z,3.28
2023-12-04T14:56:35.275Z,2.35
2023-12-04T14:59:07.012Z,2.47
2023-12-04T15:02:00.250Z,2.80
2023-12-04T15:04:27.625Z,3.17
2023-12-04T15:07:13.436Z,2.75
2023-12-04T15:09:46.387Z,2.50
2023-12-04T15:12:13.733Z,2.60
2023-12-04T15:15:01.314Z,2.63
2023-12-04T15:17:35.575Z,2.72
2023-12-04T15:20:11.716Z,2.67
2023-12-04T15:22:39.069Z,2.70
2023-12-04T15:25:12.483Z,2.92
2023-12-04T15:27:39.778Z,3.35
2023-12-04T15:30:09.452Z,3.05
2023-12-04T15:32:36.732Z,3.85
2023-12-04T15:35:06.118Z,3.40
2023-12-04T15:37:35.191Z,2.53
2023-12-04T15:40:02.795Z,2.67
2023-12-04T15:42:30.113Z,2.78
2023-12-04T15:44:57.423Z,2.53
2023-12-04T15:47:26.975Z,3.22
2023-12-04T15:49:54.318Z,2.42
2023-12-04T15:52:25.923Z,2.60
2023-12-04T15:54:53.573Z,3.08
2023-12-04T15:57:21.003Z,2.85
2023-12-04T15:59:48.370Z,3.13
2023-12-04T16:02:15.701Z,2.95
2023-12-04T16:04:43.670Z,2.92
2023-12-04T16:07:11.002Z,3.10
2023-12-04T16:09:38.303Z,2.58
2023-12-04T16:12:06.848Z,2.70
2023-12-04T16:14:34.015Z,3.60
2023-12-04T16:17:01.220Z,4.03
2023-12-04T16:19:30.986Z,3.63
2023-12-04T16:21:58.330Z,2.90
2023-12-04T16:24:25.550Z,2.92
2023-12-04T16:26:54.471Z,2.97
2023-12-04T16:29:21.733Z,3.20
2023-12-04T16:31:48.896Z,3.85
2023-12-04T16:34:16.322Z,3.47
2023-12-04T16:36:43.713Z,3.28
2023-12-04T16:39:11.014Z,3.25
2023-12-04T16:41:38.316Z,3.03
2023-12-04T16:44:06.134Z,3.42
2023-12-04T16:46:33.442Z,2.88
2023-12-04T16:49:00.984Z,4.10
2023-12-04T16:51:28.352Z,3.92
2023-12-04T16:53:56.858Z,2.67
2023-12-04T16:56:24.339Z,2.63
2023-12-04T16:58:51.570Z,2.70
2023-12-04T17:01:18.727Z,2.92
2023-12-04T17:03:46.076Z,3.33
2023-12-04T17:06:13.430Z,2.92
2023-12-04T17:08:40.808Z,2.95
2023-12-04T17:11:08.511Z,2.80
2023-12-04T17:13:38.754Z,3.47
2023-12-04T17:16:06.999Z,3.90
2023-12-04T17:18:34.267Z,3.15
2023-12-04T17:21:01.591Z,3.10
2023-12-04T17:23:28.979Z,3.80
2023-12-04T17:25:56.335Z,3.25
2023-12-04T17:28:24.447Z,3.67
2023-12-04T17:30:52.437Z,3.20
2023-12-04T17:33:21.348Z,3.40
2023-12-04T17:35:48.758Z,4.05
2023-12-04T17:38:16.056Z,4.28
2023-12-04T17:40:43.225Z,3.78
2023-12-04T17:43:11.768Z,3.60
2023-12-04T17:45:39.366Z,4.25
2023-12-04T17:48:07.129Z,3.95
2023-12-04T17:50:34.560Z,3.10
2023-12-04T17:53:01.828Z,8.65
2023-12-04T17:55:31.168Z,4.75
2023-12-04T17:57:59.772Z,3.20
2023-12-04T18:00:27.196Z,2.33
2023-12-04T18:02:54.456Z,3.22
2023-12-04T18:05:23.889Z,2.70
2023-12-04T18:07:51.324Z,3.58
2023-12-04T18:10:18.866Z,4.25
2023-12-04T18:12:47.755Z,4.35
2023-12-04T18:15:16.572Z,3.20
2023-12-04T18:17:44.252Z,3.20
2023-12-04T18:20:14.685Z,2.92
2023-12-04T18:22:46.100Z,3.28
2023-12-04T18:25:14.120Z,3.50
2023-12-04T18:27:41.895Z,2.80
2023-12-04T18:30:10.905Z,3.65
2023-12-04T18:32:38.666Z,3.28
2023-12-04T18:35:06.752Z,3.17
2023-12-04T18:37:51.724Z,2.90
2023-12-04T18:40:20.465Z,2.70
2023-12-04T18:42:48.173Z,2.63
2023-12-04T18:45:15.941Z,4.07
2023-12-04T18:47:45.494Z,2.78
2023-12-04T18:50:13.733Z,2.80
2023-12-04T18:52:41.249Z,2.25
2023-12-04T18:55:08.889Z,3.00
2023-12-04T18:57:36.170Z,2.80
2023-12-04T19:02:32.676Z,2.50
2023-12-04T19:05:00.079Z,3.22
2023-12-04T19:07:27.786Z,2.30
2023-12-04T19:09:55.045Z,3.00
2023-12-04T19:12:22.387Z,3.15
2023-12-04T19:14:51.844Z,3.08
2023-12-04T19:17:19.204Z,4.07
2023-12-04T19:19:47.416Z,3.53
2023-12-04T19:22:14.800Z,3.28
2023-12-04T19:24:42.174Z,2.35
2023-12-04T19:27:19.678Z,2.08
2023-12-04T19:29:49.837Z,2.15
2023-12-04T19:32:20.735Z,2.28
2023-12-04T19:34:49.222Z,1.60
2023-12-04T19:37:16.409Z,1.70
2023-12-04T19:39:49.620Z,1.85
2023-12-04T19:42:16.891Z,2.00
2023-12-04T19:44:45.124Z,2.35
2023-12-04T19:47:12.640Z,6.38
2023-12-04T19:49:44.179Z,8.60
2023-12-04T19:52:12.592Z,8.98
2023-12-04T19:54:43.297Z,4.85
2023-12-04T19:57:11.333Z,2.80
2023-12-04T19:59:38.703Z,3.10
2023-12-04T20:02:06.175Z,2.42
2023-12-04T20:04:35.394Z,1.73
2023-12-04T20:07:04.224Z,2.78
2023-12-04T20:09:31.551Z,3.35
2023-12-04T20:11:58.768Z,4.38
2023-12-04T20:14:26.012Z,3.70
2023-12-04T20:16:53.282Z,2.95
2023-12-04T20:19:20.666Z,2.50
2023-12-04T20:21:47.986Z,2.30
2023-12-04T20:24:16.050Z,2.10
2023-12-04T20:26:43.340Z,2.05
2023-12-04T20:29:10.778Z,2.25
2023-12-04T20:31:38.852Z,1.80
2023-12-04T20:34:06.883Z,2.08
2023-12-04T20:36:36.572Z,1.80
2023-12-04T20:39:09.727Z,1.70
2023-12-04T20:41:38.169Z,1.70
2023-12-04T20:44:06.322Z,1.45
2023-12-04T20:46:33.660Z,1.25
2023-12-04T20:49:03.065Z,1.85
2023-12-04T20:51:31.480Z,1.73
2023-12-04T20:53:58.697Z,1.50
2023-12-04T20:56:25.964Z,1.77
2023-12-04T20:58:59.054Z,7.30
2023-12-04T21:01:26.403Z,1.75
2023-12-04T21:03:53.991Z,1.90
2023-12-04T21:06:21.366Z,1.70
2023-12-04T21:08:48.616Z,1.42
2023-12-04T21:11:15.871Z,1.60
2023-12-04T21:13:43.149Z,1.65
2023-12-04T21:16:10.798Z,1.42
2023-12-04T21:18:38.107Z,1.27
2023-12-04T21:21:05.735Z,1.25
2023-12-04T21:23:33.017Z,1.70
2023-12-04T21:26:00.252Z,1.70
2023-12-04T21:28:27.559Z,1.58
2023-12-04T21:30:57.123Z,1.35
2023-12-04T21:33:26.435Z,1.67
2023-12-04T21:35:53.855Z,1.40
2023-12-04T21:38:21.858Z,1.95
2023-12-04T21:40:49.055Z,2.75
2023-12-04T21:43:16.314Z,2.60
2023-12-04T21:45:43.527Z,1.67
2023-12-04T21:48:11.110Z,1.48
2023-12-04T21:50:38.388Z,1.90
2023-12-04T21:53:05.691Z,1.65
2023-12-04T21:55:32.940Z,1.33
2023-12-04T21:58:00.111Z,1.50
2023-12-04T22:00:29.221Z,1.30
2023-12-04T22:02:56.669Z,1.48
2023-12-04T22:05:23.865Z,1.00
2023-12-04T22:07:51.074Z,1.20
2023-12-04T22:10:18.304Z,1.08
2023-12-04T22:12:45.665Z,2.00
2023-12-04T22:15:13.093Z,1.10
2023-12-04T22:17:41.618Z,0.95
2023-12-04T22:20:09.367Z,1.00
2023-12-04T22:22:36.653Z,1.10
2023-12-04T22:25:04.497Z,1.00
2023-12-04T22:27:37.878Z,0.93
2023-12-04T22:30:06.717Z,0.90
2023-12-04T22:32:37.431Z,0.82
2023-12-04T22:35:06.156Z,1.33
2023-12-04T22:37:33.607Z,1.10
2023-12-04T22:40:00.995Z,1.27
2023-12-04T22:42:28.312Z,1.40
2023-12-04T22:44:55.663Z,1.75
2023-12-04T22:47:22.855Z,1.38
2023-12-04T22:49:50.123Z,1.38
2023-12-04T22:52:17.368Z,1.23
2023-12-04T22:54:44.912Z,1.30
2023-12-04T22:57:12.322Z,1.67
2023-12-04T22:59:39.628Z,1.52
2023-12-04T23:02:06.863Z,1.27
2023-12-04T23:04:44.898Z,1.65
2023-12-04T23:07:12.301Z,1.90
2023-12-04T23:09:39.730Z,1.70
2023-12-04T23:12:07.239Z,1.88
2023-12-04T23:14:34.497Z,1.30
2023-12-04T23:17:01.721Z,1.30
2023-12-04T23:19:29.265Z,1.48
2023-12-04T23:21:59.652Z,1.10
2023-12-04T23:24:26.982Z,1.52
2023-12-04T23:26:54.258Z,1.42
2023-12-04T23:29:22.308Z,1.10
2023-12-04T23:31:49.519Z,1.40
2023-12-04T23:34:16.973Z,1.63
2023-12-04T23:36:44.391Z,1.25
2023-12-04T23:39:36.494Z,1.40
2023-12-04T23:42:03.939Z,1.42
2023-12-04T23:44:31.183Z,1.60
2023-12-04T23:46:59.251Z,1.42
2023-12-04T23:49:26.450Z,1.67
2023-12-04T23:51:55.877Z,1.35
2023-12-04T23:54:28.014Z,1.13
2023-12-04T23:56:55.258Z,1.30
2023-12-04T23:59:41.063Z,1.08
